Arvada, Colorado
Current Conditions -  °F | °C
As of 7:50 AM on Thursday 27 Nov 2014 (Local Time) from KBJC Reporting Station
Broken Clouds Broken Clouds  
Wind Chill: 55°   Ceiling: 14000
Heat Index: 55°   Visibility: 70mi
Dew Point: 10°   Wind: 36mph
Humidity: 17%   Direction: 260°W
Pressure: 30.2"   Gusts: 41mph
Location:  39.8°N, 105.08°W
Report Text: KBJC 271450Z 26031G36KT 70SM SCT080 BKN140 13/M12 A3020
Loading
Personal Weather Stations






























Interactive Weather Map New forecast layout! Learn more

10-Day Weather Forecast

Advertisements
Track Severe Weather on mobile